createdAt,value
2022-11-27T00:00:32.511Z,53.33
2022-11-27T00:03:05.578Z,53.35
2022-11-27T00:05:38.501Z,53.34
2022-11-27T00:08:11.478Z,53.33
2022-11-27T00:10:44.546Z,53.39
2022-11-27T00:13:17.442Z,53.37
2022-11-27T00:15:50.545Z,53.39
2022-11-27T00:18:23.522Z,53.36
2022-11-27T00:21:00.261Z,53.39
2022-11-27T00:23:33.519Z,53.42
2022-11-27T00:26:06.467Z,53.38
2022-11-27T00:28:39.560Z,53.39
2022-11-27T00:31:12.596Z,53.41
2022-11-27T00:33:45.371Z,53.42
2022-11-27T00:36:18.526Z,53.43
2022-11-27T00:38:51.528Z,53.46
2022-11-27T00:41:24.522Z,53.43
2022-11-27T00:43:57.530Z,53.45
2022-11-27T00:46:30.456Z,53.45
2022-11-27T00:49:03.481Z,53.46
2022-11-27T00:51:36.509Z,53.52
2022-11-27T00:54:09.413Z,53.54
2022-11-27T00:56:42.583Z,53.55
2022-11-27T00:59:15.590Z,53.59
2022-11-27T01:01:48.685Z,53.64
2022-11-27T01:04:21.595Z,53.61
2022-11-27T01:06:54.597Z,53.69
2022-11-27T01:09:30.497Z,53.71
2022-11-27T01:12:03.572Z,53.72
2022-11-27T01:14:36.260Z,53.72
2022-11-27T01:17:09.570Z,53.73
2022-11-27T01:19:42.646Z,53.78
2022-11-27T01:22:15.706Z,53.78
2022-11-27T01:24:48.662Z,53.77
2022-11-27T01:27:21.660Z,53.84
2022-11-27T01:29:54.549Z,53.92
2022-11-27T01:32:31.400Z,53.90
2022-11-27T01:35:04.578Z,53.95
2022-11-27T01:37:37.673Z,53.95
2022-11-27T01:40:10.608Z,53.96
2022-11-27T01:42:43.637Z,53.97
2022-11-27T01:45:16.665Z,54.00
2022-11-27T01:47:49.740Z,53.96
2022-11-27T01:50:22.601Z,53.93
2022-11-27T01:52:55.701Z,53.96
2022-11-27T01:55:28.647Z,53.95
2022-11-27T01:58:01.643Z,53.95
2022-11-27T02:00:34.672Z,53.96
2022-11-27T02:03:07.633Z,53.94
2022-11-27T02:05:40.594Z,54.01
2022-11-27T02:08:13.626Z,53.93
2022-11-27T02:10:46.719Z,53.92
2022-11-27T02:13:19.660Z,53.92
2022-11-27T02:15:52.723Z,53.95
2022-11-27T02:18:25.629Z,53.95
2022-11-27T02:20:58.737Z,53.96
2022-11-27T02:23:31.640Z,53.97
2022-11-27T02:26:04.730Z,53.98
2022-11-27T02:28:37.676Z,54.00
2022-11-27T02:31:13.619Z,54.01
2022-11-27T02:33:46.670Z,53.98
2022-11-27T02:36:19.746Z,54.00
2022-11-27T02:38:52.654Z,53.98
2022-11-27T02:41:25.718Z,54.03
2022-11-27T02:43:58.763Z,54.04
2022-11-27T02:46:31.882Z,54.05
2022-11-27T02:49:04.739Z,54.08
2022-11-27T02:51:37.720Z,54.11
2022-11-27T02:54:10.743Z,54.09
2022-11-27T02:56:43.714Z,54.07
2022-11-27T02:59:16.833Z,54.08
2022-11-27T03:01:49.800Z,54.04
2022-11-27T03:04:22.690Z,54.03
2022-11-27T03:06:55.759Z,54.09
2022-11-27T03:09:28.789Z,54.05
2022-11-27T03:12:01.790Z,54.02
2022-11-27T03:14:34.801Z,54.03
2022-11-27T03:17:07.832Z,54.03
2022-11-27T03:19:40.727Z,54.01
2022-11-27T03:22:13.737Z,53.97
2022-11-27T03:24:46.806Z,53.95
2022-11-27T03:27:19.718Z,53.96
2022-11-27T03:29:52.919Z,53.96
2022-11-27T03:32:25.839Z,53.98
2022-11-27T03:34:58.856Z,53.96
2022-11-27T03:37:31.750Z,53.97
2022-11-27T03:40:04.772Z,53.96
2022-11-27T03:42:37.815Z,53.98
2022-11-27T03:45:10.991Z,53.99
2022-11-27T03:47:43.849Z,54.00
2022-11-27T03:50:16.809Z,54.01
2022-11-27T03:52:49.883Z,54.00
2022-11-27T03:55:22.833Z,54.00
2022-11-27T03:57:55.895Z,54.04
2022-11-27T04:00:28.983Z,54.05
2022-11-27T04:03:01.890Z,54.09
2022-11-27T04:05:34.858Z,54.07
2022-11-27T04:08:07.891Z,54.05
2022-11-27T04:10:40.845Z,54.04
2022-11-27T04:13:13.785Z,54.06
2022-11-27T04:15:46.996Z,54.05
2022-11-27T04:18:19.931Z,54.10
2022-11-27T04:20:52.934Z,54.13
2022-11-27T04:23:25.907Z,54.09
2022-11-27T04:25:58.911Z,54.15
2022-11-27T04:28:31.860Z,54.13
2022-11-27T04:31:04.871Z,54.13
2022-11-27T04:33:37.869Z,54.09
2022-11-27T04:36:10.912Z,54.09
2022-11-27T04:38:43.882Z,54.04
2022-11-27T04:41:16.857Z,54.04
2022-11-27T04:43:49.922Z,54.04
2022-11-27T04:46:23.124Z,54.06
2022-11-27T04:48:55.843Z,54.03
2022-11-27T04:51:28.958Z,54.08
2022-11-27T04:54:03.825Z,54.02
2022-11-27T04:56:36.908Z,54.03
2022-11-27T04:59:09.897Z,54.07
2022-11-27T05:01:43.082Z,54.00
2022-11-27T05:04:15.940Z,54.02
2022-11-27T05:06:48.996Z,54.00
2022-11-27T05:09:21.917Z,54.01
2022-11-27T05:11:54.904Z,53.98
2022-11-27T05:14:28.011Z,53.97
2022-11-27T05:17:06.906Z,53.99
2022-11-27T05:19:34.130Z,53.95
2022-11-27T05:22:06.925Z,53.98
2022-11-27T05:24:40.154Z,53.97
2022-11-27T05:27:13.016Z,53.95
2022-11-27T05:29:46.045Z,53.96
2022-11-27T05:32:18.941Z,53.97
2022-11-27T05:34:52.164Z,53.98
2022-11-27T05:37:24.988Z,53.99
2022-11-27T05:39:57.953Z,54.00
2022-11-27T05:42:31.065Z,54.02
2022-11-27T05:45:03.822Z,54.01
2022-11-27T05:47:36.909Z,54.04
2022-11-27T05:50:10.085Z,54.00
2022-11-27T05:52:43.029Z,54.01
2022-11-27T05:55:16.087Z,54.01
2022-11-27T05:57:49.007Z,54.03
2022-11-27T06:00:22.020Z,54.08
2022-11-27T06:02:55.065Z,54.03
2022-11-27T06:05:28.201Z,54.02
2022-11-27T06:08:01.124Z,54.05
2022-11-27T06:10:33.821Z,54.07
2022-11-27T06:13:07.093Z,54.09
2022-11-27T06:15:40.012Z,54.05
2022-11-27T06:18:13.007Z,54.09
2022-11-27T06:20:53.125Z,54.03
2022-11-27T06:23:19.196Z,54.05
2022-11-27T06:25:52.067Z,54.04
2022-11-27T06:28:25.095Z,54.03
2022-11-27T06:30:58.013Z,54.03
2022-11-27T06:33:31.045Z,54.01
2022-11-27T06:36:04.002Z,53.99
2022-11-27T06:38:37.005Z,53.99
2022-11-27T06:41:10.082Z,54.00
2022-11-27T06:43:43.159Z,53.99
2022-11-27T06:46:16.179Z,53.96
2022-11-27T06:48:49.065Z,53.95
2022-11-27T06:51:22.175Z,53.95
2022-11-27T06:53:55.215Z,53.95
2022-11-27T06:56:28.041Z,54.00
2022-11-27T06:59:01.115Z,53.98
2022-11-27T07:01:34.134Z,53.97
2022-11-27T07:04:07.102Z,54.00
2022-11-27T07:06:40.130Z,53.98
2022-11-27T07:09:13.302Z,53.97
2022-11-27T07:11:46.087Z,53.98
2022-11-27T07:14:19.101Z,54.02
2022-11-27T07:16:52.205Z,53.99
2022-11-27T07:19:25.188Z,54.02
2022-11-27T07:21:58.183Z,54.02
2022-11-27T07:24:31.227Z,54.03
2022-11-27T07:27:04.182Z,53.98
2022-11-27T07:29:37.149Z,53.99
2022-11-27T07:32:09.818Z,53.96
2022-11-27T07:34:43.174Z,53.99
2022-11-27T07:37:16.117Z,53.98
2022-11-27T07:40:03.706Z,53.97
2022-11-27T07:42:38.697Z,53.96
2022-11-27T07:44:55.122Z,53.99
2022-11-27T07:47:28.232Z,53.98
2022-11-27T07:50:01.175Z,53.97
2022-11-27T07:52:39.537Z,53.95
2022-11-27T07:55:07.066Z,53.93
2022-11-27T07:57:39.901Z,53.92
2022-11-27T08:00:12.883Z,53.94
2022-11-27T08:02:46.164Z,53.92
2022-11-27T08:05:19.284Z,53.95
2022-11-27T08:07:52.265Z,53.94
2022-11-27T08:10:25.401Z,53.92
2022-11-27T08:12:58.203Z,53.91
2022-11-27T08:15:31.193Z,53.90
2022-11-27T08:18:04.234Z,53.97
2022-11-27T08:20:37.074Z,54.01
2022-11-27T08:23:09.910Z,54.04
2022-11-27T08:25:43.417Z,54.02
2022-11-27T08:28:15.926Z,53.93
2022-11-27T08:30:49.299Z,53.75
2022-11-27T08:33:22.208Z,53.83
2022-11-27T08:35:55.214Z,53.78
2022-11-27T08:38:28.278Z,53.73
2022-11-27T08:41:02.177Z,53.69
2022-11-27T08:43:35.361Z,53.63
2022-11-27T08:46:08.061Z,53.59
2022-11-27T08:48:41.179Z,53.40
2022-11-27T08:51:14.256Z,53.45
2022-11-27T08:53:47.194Z,53.46
2022-11-27T08:56:20.423Z,53.63
2022-11-27T08:58:52.955Z,53.68
2022-11-27T09:01:26.359Z,53.68
2022-11-27T09:03:59.066Z,53.73
2022-11-27T09:06:32.083Z,53.75
2022-11-27T09:09:05.160Z,53.78
2022-11-27T09:11:38.183Z,53.76
2022-11-27T09:14:11.401Z,53.84
2022-11-27T09:16:44.294Z,53.83
2022-11-27T09:19:17.203Z,53.80
2022-11-27T09:21:50.186Z,53.80
2022-11-27T09:24:23.402Z,53.92
2022-11-27T09:26:56.266Z,53.89
2022-11-27T09:29:29.326Z,53.87
2022-11-27T09:32:02.389Z,53.93
2022-11-27T09:34:37.640Z,53.83
2022-11-27T09:37:09.224Z,53.90
2022-11-27T09:39:42.316Z,53.85
2022-11-27T09:42:15.445Z,53.92
2022-11-27T09:44:48.429Z,53.87
2022-11-27T09:47:21.292Z,53.86
2022-11-27T09:49:54.041Z,53.86
2022-11-27T09:52:27.414Z,53.86
2022-11-27T09:55:00.413Z,53.89
2022-11-27T09:57:33.536Z,53.87
2022-11-27T10:02:56.584Z,53.89
2022-11-27T10:05:29.341Z,53.87
2022-11-27T10:08:06.714Z,53.88
2022-11-27T10:10:35.220Z,53.82
2022-11-27T10:13:08.437Z,53.81
2022-11-27T10:15:41.495Z,53.77
2022-11-27T10:18:14.369Z,53.73
2022-11-27T10:20:47.417Z,53.71
2022-11-27T10:23:20.423Z,53.61
2022-11-27T10:25:53.519Z,53.63
2022-11-27T10:28:26.623Z,53.58
2022-11-27T10:30:59.229Z,53.55
2022-11-27T10:33:32.369Z,53.55
2022-11-27T10:36:05.481Z,53.54
2022-11-27T10:38:38.366Z,53.55
2022-11-27T10:41:18.625Z,53.52
2022-11-27T10:43:44.544Z,53.50
2022-11-27T10:46:17.468Z,53.51
2022-11-27T10:48:50.567Z,53.59
2022-11-27T10:51:23.428Z,53.60
2022-11-27T10:53:56.415Z,53.51
2022-11-27T10:56:29.441Z,53.56
2022-11-27T10:59:02.641Z,53.53
2022-11-27T11:01:35.291Z,53.51
2022-11-27T11:04:24.677Z,53.55
2022-11-27T11:06:41.371Z,53.48
2022-11-27T11:09:14.525Z,53.48
2022-11-27T11:11:47.547Z,53.45
2022-11-27T11:14:20.657Z,53.46
2022-11-27T11:16:53.538Z,53.45
2022-11-27T11:19:26.244Z,53.50
2022-11-27T11:21:59.189Z,53.55
2022-11-27T11:24:32.336Z,53.62
2022-11-27T11:27:05.254Z,53.59
2022-11-27T11:29:38.336Z,53.62
2022-11-27T11:32:11.324Z,53.62
2022-11-27T11:34:44.232Z,53.60
2022-11-27T11:37:17.447Z,53.61
2022-11-27T11:39:50.387Z,53.58
2022-11-27T11:42:23.479Z,53.57
2022-11-27T11:45:10.382Z,53.57
2022-11-27T11:47:43.427Z,53.61
2022-11-27T11:50:16.318Z,53.61
2022-11-27T11:52:49.250Z,53.58
2022-11-27T11:55:22.511Z,53.55
2022-11-27T11:57:55.661Z,53.13
2022-11-27T12:00:31.577Z,52.02
2022-11-27T12:03:01.465Z,51.18
2022-11-27T12:05:34.287Z,50.44
2022-11-27T12:08:07.398Z,49.37
2022-11-27T12:10:40.411Z,48.71
2022-11-27T12:13:13.304Z,48.06
2022-11-27T12:15:46.536Z,47.79
2022-11-27T12:18:19.636Z,49.98
2022-11-27T12:20:52.448Z,50.33
2022-11-27T12:23:25.658Z,50.53
2022-11-27T12:25:58.643Z,50.61
2022-11-27T12:28:31.410Z,50.68
2022-11-27T12:31:04.570Z,50.82
2022-11-27T12:33:37.433Z,50.87
2022-11-27T12:36:10.296Z,50.94
2022-11-27T12:38:43.306Z,51.02
2022-11-27T12:41:16.321Z,51.09
2022-11-27T12:43:50.398Z,51.15
2022-11-27T12:46:23.962Z,51.25
2022-11-27T12:48:56.605Z,51.42
2022-11-27T12:51:29.679Z,51.59
2022-11-27T12:54:03.702Z,51.77
2022-11-27T12:56:36.611Z,51.80
2022-11-27T12:59:09.566Z,51.92
2022-11-27T13:01:42.821Z,51.97
2022-11-27T13:04:15.638Z,52.03
2022-11-27T13:06:48.538Z,52.09
2022-11-27T13:09:21.422Z,52.16
2022-11-27T13:11:54.493Z,52.22
2022-11-27T13:14:27.496Z,52.25
2022-11-27T13:17:00.694Z,52.13
2022-11-27T13:19:33.654Z,52.17
2022-11-27T13:22:06.492Z,52.25
2022-11-27T13:24:39.821Z,52.31
2022-11-27T13:27:12.646Z,52.34
2022-11-27T13:29:45.650Z,52.37
2022-11-27T13:32:18.971Z,52.40
2022-11-27T13:34:52.746Z,52.41
2022-11-27T13:37:25.751Z,52.42
2022-11-27T13:39:58.754Z,52.47
2022-11-27T13:42:31.690Z,52.45
2022-11-27T13:45:04.798Z,52.46
2022-11-27T13:47:37.884Z,52.51
2022-11-27T13:50:10.786Z,52.52
2022-11-27T13:52:43.461Z,52.51
2022-11-27T13:55:16.449Z,52.49
2022-11-27T13:57:49.623Z,52.50
2022-11-27T14:00:22.624Z,52.52
2022-11-27T14:02:55.928Z,52.43
2022-11-27T14:05:28.744Z,52.46
2022-11-27T14:08:01.841Z,52.46
2022-11-27T14:10:34.535Z,52.48
2022-11-27T14:13:07.454Z,52.46
2022-11-27T14:15:40.553Z,52.46
2022-11-27T14:18:13.881Z,52.40
2022-11-27T14:20:48.727Z,52.42
2022-11-27T14:23:21.756Z,52.47
2022-11-27T14:25:54.863Z,52.46
2022-11-27T14:28:27.833Z,52.40
2022-11-27T14:31:00.862Z,52.42
2022-11-27T14:33:47.444Z,52.38
2022-11-27T14:36:06.767Z,52.37
2022-11-27T14:38:39.812Z,52.35
2022-11-27T14:41:12.486Z,52.34
2022-11-27T14:43:45.638Z,52.30
2022-11-27T14:46:18.634Z,52.31
2022-11-27T14:48:52.054Z,52.30
2022-11-27T14:51:24.809Z,52.36
2022-11-27T14:53:57.792Z,52.34
2022-11-27T14:56:30.883Z,52.33
2022-11-27T14:59:03.948Z,52.31
2022-11-27T15:01:36.691Z,52.29
2022-11-27T15:04:09.931Z,52.31
2022-11-27T15:06:42.838Z,52.32
2022-11-27T15:09:31.248Z,52.27
2022-11-27T15:11:56.324Z,52.24
2022-11-27T15:14:21.957Z,52.24
2022-11-27T15:16:54.923Z,52.23
2022-11-27T15:19:28.007Z,52.25
2022-11-27T15:22:00.831Z,52.27
2022-11-27T15:24:33.852Z,52.24
2022-11-27T15:27:06.906Z,52.27
2022-11-27T15:29:40.386Z,52.28
2022-11-27T15:32:12.946Z,52.29
2022-11-27T15:34:48.895Z,52.27
2022-11-27T15:37:21.928Z,52.31
2022-11-27T15:39:54.902Z,52.34
2022-11-27T15:42:27.866Z,52.30
2022-11-27T15:45:00.972Z,52.33
2022-11-27T15:47:33.610Z,52.37
2022-11-27T15:50:07.134Z,52.37
2022-11-27T15:52:39.926Z,52.40
2022-11-27T15:55:13.006Z,52.39
2022-11-27T15:57:45.914Z,52.43
2022-11-27T16:00:19.026Z,52.44
2022-11-27T16:02:52.042Z,52.41
2022-11-27T16:05:25.178Z,52.50
2022-11-27T16:07:58.088Z,52.56
2022-11-27T16:10:30.925Z,52.57
2022-11-27T16:13:03.967Z,52.63
2022-11-27T16:15:37.022Z,52.68
2022-11-27T16:18:09.775Z,52.72
2022-11-27T16:20:42.777Z,52.71
2022-11-27T16:23:16.019Z,52.78
2022-11-27T16:25:48.683Z,52.77
2022-11-27T16:28:22.009Z,52.80
2022-11-27T16:30:54.771Z,52.81
2022-11-27T16:33:27.996Z,52.84
2022-11-27T16:36:01.168Z,52.86
2022-11-27T16:38:33.740Z,52.91
2022-11-27T16:41:06.767Z,52.87
2022-11-27T16:43:40.013Z,52.88
2022-11-27T16:46:13.181Z,52.88
2022-11-27T16:48:46.090Z,52.91
2022-11-27T16:51:19.210Z,52.84
2022-11-27T16:53:52.137Z,52.87
2022-11-27T16:56:25.071Z,52.88
2022-11-27T16:59:02.324Z,52.92
2022-11-27T17:01:30.942Z,52.90
2022-11-27T17:04:03.812Z,52.88
2022-11-27T17:06:37.197Z,52.91
2022-11-27T17:09:09.889Z,52.90
2022-11-27T17:11:42.876Z,52.92
2022-11-27T17:14:15.751Z,52.88
2022-11-27T17:16:49.003Z,52.92
2022-11-27T17:19:22.124Z,52.91
2022-11-27T17:21:54.868Z,52.93
2022-11-27T17:24:27.867Z,52.89
2022-11-27T17:27:00.821Z,52.90
2022-11-27T17:29:34.105Z,52.88
2022-11-27T17:32:06.901Z,52.90
2022-11-27T17:34:39.947Z,52.89
2022-11-27T17:37:12.995Z,52.88
2022-11-27T17:39:45.915Z,52.89
2022-11-27T17:42:22.615Z,52.93
2022-11-27T17:44:51.834Z,52.89
2022-11-27T17:47:38.860Z,52.90
2022-11-27T17:50:11.797Z,52.86
2022-11-27T17:52:45.239Z,52.81
2022-11-27T17:55:18.111Z,52.83
2022-11-27T17:57:51.097Z,52.80
2022-11-27T18:00:23.905Z,52.82
2022-11-27T18:02:57.088Z,52.81
2022-11-27T18:05:29.823Z,52.83
2022-11-27T18:08:03.065Z,52.88
2022-11-27T18:10:35.973Z,52.91
2022-11-27T18:13:09.122Z,52.90
2022-11-27T18:15:42.171Z,52.93
2022-11-27T18:18:15.157Z,53.03
2022-11-27T18:20:48.191Z,53.00
2022-11-27T18:23:21.384Z,53.06
2022-11-27T18:25:53.869Z,53.20
2022-11-27T18:28:26.846Z,53.26
2022-11-27T18:31:00.023Z,53.16
2022-11-27T18:33:32.979Z,53.14
2022-11-27T18:36:05.908Z,53.26
2022-11-27T18:38:39.275Z,53.29
2022-11-27T18:41:12.165Z,53.34
2022-11-27T18:43:48.160Z,53.32
2022-11-27T18:46:20.909Z,53.34
2022-11-27T18:48:53.930Z,53.27
2022-11-27T18:51:26.890Z,53.32
2022-11-27T18:53:59.999Z,53.33
2022-11-27T18:56:33.034Z,53.29
2022-11-27T18:59:05.922Z,53.32
2022-11-27T19:01:42.299Z,53.33
2022-11-27T19:04:12.244Z,53.27
2022-11-27T19:06:45.016Z,53.27
2022-11-27T19:09:18.348Z,53.27
2022-11-27T19:11:51.209Z,53.26
2022-11-27T19:14:24.011Z,53.27
2022-11-27T19:16:57.164Z,53.31
2022-11-27T19:22:03.031Z,53.26
2022-11-27T19:24:36.184Z,53.24
2022-11-27T19:27:08.984Z,53.24
2022-11-27T19:29:42.229Z,53.24
2022-11-27T19:32:15.300Z,53.24
2022-11-27T19:34:48.066Z,53.28
2022-11-27T19:37:33.444Z,53.26
2022-11-27T19:39:54.221Z,53.31
2022-11-27T19:42:27.031Z,53.30
2022-11-27T19:45:00.011Z,53.26
2022-11-27T19:47:32.997Z,53.29
2022-11-27T19:50:06.076Z,53.29
2022-11-27T19:52:39.049Z,53.29
2022-11-27T19:55:12.285Z,53.32
2022-11-27T19:57:45.306Z,53.28
2022-11-27T20:00:17.982Z,53.27
2022-11-27T20:02:51.189Z,53.26
2022-11-27T20:05:24.122Z,53.30
2022-11-27T20:07:57.334Z,53.24
2022-11-27T20:10:30.137Z,53.19
2022-11-27T20:13:03.021Z,53.21
2022-11-27T20:15:36.091Z,53.24
2022-11-27T20:18:09.429Z,53.28
2022-11-27T20:20:42.180Z,53.26
2022-11-27T20:23:15.321Z,53.24
2022-11-27T20:25:48.514Z,53.28
2022-11-27T20:28:21.424Z,53.26
2022-11-27T20:30:54.224Z,53.28
2022-11-27T20:33:33.038Z,53.31
2022-11-27T20:36:06.178Z,53.27
2022-11-27T20:38:39.081Z,53.28
2022-11-27T20:41:18.052Z,53.28
2022-11-27T20:43:45.220Z,53.29
2022-11-27T20:46:18.394Z,53.28
2022-11-27T20:48:51.212Z,53.30
2022-11-27T20:51:24.093Z,53.29
2022-11-27T20:53:57.105Z,53.30
2022-11-27T20:56:30.370Z,53.30
2022-11-27T20:59:03.351Z,53.31
2022-11-27T21:01:36.323Z,53.32
2022-11-27T21:04:09.117Z,53.30
2022-11-27T21:06:44.284Z,53.30
2022-11-27T21:09:15.389Z,53.34
2022-11-27T21:11:48.230Z,53.31
2022-11-27T21:14:21.269Z,53.31
2022-11-27T21:16:54.295Z,53.33
2022-11-27T21:19:27.493Z,53.35
2022-11-27T21:22:00.447Z,53.38
2022-11-27T21:24:33.468Z,53.39
2022-11-27T21:27:06.364Z,53.42
2022-11-27T21:29:39.576Z,53.37
2022-11-27T21:32:12.212Z,53.41
2022-11-27T21:34:45.513Z,53.23
2022-11-27T21:37:18.155Z,53.14
2022-11-27T21:39:51.241Z,53.26
2022-11-27T21:42:24.357Z,53.24
2022-11-27T21:44:57.382Z,53.23
2022-11-27T21:47:30.355Z,53.25
2022-11-27T21:50:03.288Z,53.30
2022-11-27T21:52:36.173Z,53.31
2022-11-27T21:55:12.185Z,53.33
2022-11-27T21:57:42.247Z,53.33
2022-11-27T22:00:15.289Z,53.32
2022-11-27T22:02:48.276Z,53.32
2022-11-27T22:05:21.240Z,53.32
2022-11-27T22:07:54.400Z,53.32
2022-11-27T22:10:27.280Z,53.27
2022-11-27T22:13:00.230Z,53.32
2022-11-27T22:15:33.614Z,53.39
2022-11-27T22:18:06.604Z,53.45
2022-11-27T22:20:39.298Z,53.42
2022-11-27T22:23:12.631Z,53.47
2022-11-27T22:25:45.556Z,53.44
2022-11-27T22:28:18.591Z,53.53
2022-11-27T22:30:51.523Z,53.50
2022-11-27T22:33:24.582Z,53.54
2022-11-27T22:35:57.512Z,53.49
2022-11-27T22:38:30.511Z,53.53
2022-11-27T22:41:03.537Z,53.51
2022-11-27T22:43:36.614Z,53.50
2022-11-27T22:46:09.602Z,53.49
2022-11-27T22:48:42.598Z,53.48
2022-11-27T22:51:15.580Z,53.55
2022-11-27T22:53:48.656Z,53.55
2022-11-27T22:56:21.604Z,53.54
2022-11-27T22:59:11.292Z,53.63
2022-11-27T23:01:27.700Z,53.65
2022-11-27T23:04:00.766Z,53.70
2022-11-27T23:06:33.644Z,53.76
2022-11-27T23:09:06.669Z,53.77
2022-11-27T23:11:39.671Z,53.77
2022-11-27T23:14:12.581Z,53.80
2022-11-27T23:16:45.833Z,53.84
2022-11-27T23:19:18.384Z,53.87
2022-11-27T23:21:51.599Z,53.84
2022-11-27T23:24:24.696Z,53.86
2022-11-27T23:26:57.715Z,53.84
2022-11-27T23:29:30.702Z,53.91
2022-11-27T23:32:03.823Z,53.91
2022-11-27T23:34:36.696Z,53.91
2022-11-27T23:37:09.581Z,54.00
2022-11-27T23:39:42.756Z,54.10
2022-11-27T23:42:15.651Z,54.03
2022-11-27T23:44:48.704Z,54.00
2022-11-27T23:47:21.695Z,54.09
2022-11-27T23:49:54.724Z,54.08
2022-11-27T23:52:27.682Z,54.06
2022-11-27T23:55:00.673Z,54.05
2022-11-27T23:57:33.623Z,54.07
